METAR Data
IDs: Format: Raw Decoded Include TAF

Data at: 0229 UTC 24 Oct 2019

METAR for:KAIO (Atlantic Muni, IA, US)
Text:KAIO 240215Z AUTO 36007G13KT 10SM FEW013 SCT020 OVC038 05/05 A3013 RMK AO2
Temperature: 5.0°C ( 41°F)
Dewpoint: 5.0°C ( 41°F) [RH = 100%]
Pressure (altimeter):30.13 inches Hg (1020.4 mb)
Winds:from the N (360 degrees) at 8 MPH (7 knots; 3.6 m/s) gusting to 15 MPH (13 knots; 6.7 m/s)
Visibility:10 or more sm (16+ km)
Ceiling:3800 feet AGL
Clouds: few clouds at 1300 feet AGL, scattered clouds at 2000 feet AGL, overcast cloud deck at 3800 feet AGL
QC Flag:automated observation with no human augmentation